Time;durP1;ratioP1;P1;durP2;ratioP2;P2;SDS_P1;SDS_P2;PMS_P1;PMS_P2;Temp;Humidity;BMP_temperature;BMP_pressure;BME280_temperature;BME280_humidity;BME280_pressure;Samples;Min_cycle;Max_cycle;Signal;HPM_P1;HPM_P2
2023/05/25 00:01:06;;;;;;;30.70;17.35;;;11.60;99.90;;;;;;5072755;28;20167;-81
2023/05/25 00:03:32;;;;;;;28.60;16.83;;;11.60;99.90;;;;;;5054605;28;20128;-80
2023/05/25 00:06:01;;;;;;;33.58;16.08;;;11.60;99.90;;;;;;5055392;28;20035;-81
2023/05/25 00:08:27;;;;;;;25.05;14.52;;;11.60;99.90;;;;;;5076553;28;20024;-81
2023/05/25 00:10:52;;;;;;;28.60;15.75;;;11.60;99.90;;;;;;5076402;28;20028;-81
2023/05/25 00:13:18;;;;;;;24.35;15.70;;;11.60;99.90;;;;;;5058560;28;20537;-81
2023/05/25 00:15:44;;;;;;;25.65;15.07;;;11.50;99.90;;;;;;5057251;28;20033;-80
2023/05/25 00:18:10;;;;;;;24.60;15.57;;;11.50;99.90;;;;;;5056279;28;20025;-81
2023/05/25 00:20:36;;;;;;;28.85;15.60;;;11.50;99.90;;;;;;5056302;28;20496;-81
2023/05/25 00:23:01;;;;;;;24.23;14.75;;;11.60;99.90;;;;;;5032356;28;20041;-80
2023/05/25 00:25:28;;;;;;;30.08;16.13;;;11.60;99.90;;;;;;5036342;28;20052;-81
2023/05/25 00:27:53;;;;;;;29.33;15.68;;;11.60;99.90;;;;;;5018457;28;20076;-81
2023/05/25 00:30:19;;;;;;;27.77;15.55;;;11.60;99.90;;;;;;5018448;28;20022;-81
2023/05/25 00:32:45;;;;;;;22.98;15.25;;;11.60;99.90;;;;;;5018257;28;20052;-81
2023/05/25 00:35:10;;;;;;;25.17;16.05;;;11.60;99.90;;;;;;5018465;28;20032;-81
2023/05/25 00:37:36;;;;;;;24.95;15.85;;;11.50;99.90;;;;;;5036072;28;20029;-81
2023/05/25 00:40:02;;;;;;;23.98;14.52;;;11.50;99.90;;;;;;5018044;28;20052;-81
2023/05/25 00:42:29;;;;;;;22.95;14.05;;;11.60;99.90;;;;;;5035903;28;20071;-81
2023/05/25 00:44:56;;;;;;;24.63;15.25;;;11.60;99.90;;;;;;5018158;28;20032;-80
2023/05/25 00:47:22;;;;;;;23.80;13.30;;;11.50;99.90;;;;;;5035737;28;20025;-81
2023/05/25 00:49:48;;;;;;;20.52;14.75;;;11.50;99.90;;;;;;5017970;28;20049;-81
2023/05/25 00:52:14;;;;;;;24.88;16.42;;;11.50;99.90;;;;;;5018090;28;20467;-81
2023/05/25 00:54:40;;;;;;;25.58;16.10;;;11.50;99.90;;;;;;5035749;28;20016;-81
2023/05/25 00:57:07;;;;;;;26.02;15.07;;;11.50;99.90;;;;;;5017970;28;20018;-81
2023/05/25 00:59:39;;;;;;;22.65;15.48;;;11.50;99.90;;;;;;5035577;28;20045;-80
2023/05/25 01:02:09;;;;;;;;;;;11.50;99.90;;;;;;5018262;28;20112;-80
2023/05/25 01:04:39;;;;;;;24.00;14.48;;;11.50;99.90;;;;;;5035312;28;19917;-80
2023/05/25 01:07:07;;;;;;;25.73;15.93;;;11.40;99.90;;;;;;5035535;28;20018;-81
2023/05/25 01:09:37;;;;;;;25.85;16.35;;;11.40;99.90;;;;;;5017803;28;20100;-80
2023/05/25 01:12:04;;;;;;;30.50;15.93;;;11.40;99.90;;;;;;5017504;28;20033;-79
2023/05/25 01:14:31;;;;;;;26.75;18.17;;;11.40;99.90;;;;;;5035528;28;20570;-81
2023/05/25 01:16:58;;;;;;;26.88;17.60;;;11.40;99.90;;;;;;5017480;28;20371;-81
2023/05/25 01:19:24;;;;;;;31.05;17.08;;;11.40;99.90;;;;;;5035106;28;20072;-81
2023/05/25 01:22:09;;;;;;;32.60;18.00;;;11.40;99.90;;;;;;5035187;28;20026;-81
2023/05/25 01:24:43;;;;;;;36.15;16.50;;;11.40;99.90;;;;;;5017334;28;20136;-80
2023/05/25 01:27:31;;;;;;;31.48;16.73;;;11.40;99.90;;;;;;5017433;28;20112;-81
2023/05/25 01:29:58;;;;;;;27.77;17.13;;;11.30;99.90;;;;;;5034951;28;20450;-81
2023/05/25 01:32:25;;;;;;;35.80;20.30;;;11.30;99.90;;;;;;5017313;28;20030;-81
2023/05/25 01:34:53;;;;;;;36.67;19.13;;;11.30;99.90;;;;;;5035038;28;20033;-80
2023/05/25 01:37:19;;;;;;;34.30;19.75;;;11.20;99.90;;;;;;5017164;28;20026;-80
2023/05/25 01:39:45;;;;;;;32.10;19.77;;;11.20;99.90;;;;;;5017328;28;20064;-81
2023/05/25 01:42:10;;;;;;;35.78;20.02;;;11.20;99.90;;;;;;5017106;28;20061;-80
2023/05/25 01:44:37;;;;;;;36.13;21.33;;;11.20;99.90;;;;;;5034814;28;20445;-81
2023/05/25 01:47:15;;;;;;;30.90;19.15;;;11.20;99.90;;;;;;5016373;28;20083;-80
2023/05/25 01:50:06;;;;;;;33.40;20.67;;;11.20;99.90;;;;;;5030758;28;20140;-80
2023/05/25 01:52:37;;;;;;;43.08;22.70;;;11.20;99.90;;;;;;5051600;28;20024;-81
2023/05/25 01:55:11;;;;;;;38.08;23.35;;;11.10;99.90;;;;;;5074527;28;20021;-81
2023/05/25 01:57:42;;;;;;;41.00;24.02;;;11.00;99.90;;;;;;5074430;28;20024;-81
2023/05/25 02:00:10;;;;;;;42.03;25.25;;;11.00;99.90;;;;;;5074458;28;20029;-80
2023/05/25 02:02:39;;;;;;;41.25;24.02;;;11.00;99.90;;;;;;5056365;28;20405;-81
2023/05/25 02:05:05;;;;;;;45.83;24.90;;;10.90;99.90;;;;;;5074289;28;20035;-81
2023/05/25 02:07:32;;;;;;;44.50;24.45;;;10.90;99.90;;;;;;5056286;28;20024;-80
2023/05/25 02:09:57;;;;;;;37.88;23.45;;;10.90;99.90;;;;;;5056407;28;20025;-80
2023/05/25 02:12:23;;;;;;;39.60;23.10;;;10.90;99.90;;;;;;5074076;28;20070;-81
2023/05/25 02:14:49;;;;;;;44.95;24.73;;;10.90;99.90;;;;;;5056278;28;20025;-80
2023/05/25 02:17:17;;;;;;;38.20;22.73;;;10.90;99.90;;;;;;5074067;28;20429;-80
2023/05/25 02:19:43;;;;;;;41.75;22.80;;;11.00;99.90;;;;;;5073900;28;20131;-80
2023/05/25 02:22:09;;;;;;;42.47;24.85;;;10.90;99.90;;;;;;5073960;28;20012;-80
2023/05/25 02:24:36;;;;;;;38.92;22.90;;;10.90;99.90;;;;;;5073900;28;20591;-80
2023/05/25 02:27:03;;;;;;;43.28;23.40;;;10.90;99.90;;;;;;5055940;28;20039;-81
2023/05/25 02:29:28;;;;;;;39.05;24.08;;;10.90;99.90;;;;;;5055571;28;20020;-81
2023/05/25 02:31:55;;;;;;;42.33;23.55;;;10.90;99.90;;;;;;5055891;28;20375;-80
2023/05/25 02:34:20;;;;;;;38.40;22.88;;;10.90;99.90;;;;;;5055925;28;20023;-81
2023/05/25 02:36:46;;;;;;;38.53;22.73;;;10.90;99.90;;;;;;5073661;28;20485;-81
2023/05/25 02:39:12;;;;;;;38.42;21.90;;;11.00;99.90;;;;;;5073864;28;20028;-80
2023/05/25 02:41:38;;;;;;;41.53;24.00;;;10.90;99.90;;;;;;5055581;28;20109;-81
2023/05/25 02:44:04;;;;;;;39.90;24.50;;;10.90;99.90;;;;;;5055648;28;20094;-80
2023/05/25 02:46:29;;;;;;;36.65;22.58;;;11.00;99.90;;;;;;5055575;28;20430;-81
2023/05/25 02:48:58;;;;;;;37.80;22.15;;;11.00;99.90;;;;;;5073519;28;20044;-80
2023/05/25 02:51:23;;;;;;;37.88;21.58;;;11.00;99.90;;;;;;5073438;28;20020;-80
2023/05/25 02:53:49;;;;;;;47.53;23.10;;;10.90;99.90;;;;;;5055583;28;20067;-81
2023/05/25 02:56:15;;;;;;;35.05;20.88;;;10.90;99.90;;;;;;5073394;28;20469;-81
2023/05/25 02:58:41;;;;;;;45.40;23.02;;;10.90;99.90;;;;;;5073538;28;20028;-81
2023/05/25 03:01:09;;;;;;;38.70;22.63;;;10.90;99.90;;;;;;5073391;28;20025;-81
2023/05/25 03:03:37;;;;;;;42.78;24.05;;;10.90;99.90;;;;;;5054946;28;20070;-81
2023/05/25 03:06:03;;;;;;;41.40;22.52;;;10.90;99.90;;;;;;5073329;28;20528;-81
2023/05/25 03:08:29;;;;;;;37.75;21.52;;;10.90;99.90;;;;;;5073312;28;20115;-81
2023/05/25 03:10:55;;;;;;;40.88;22.95;;;10.90;99.90;;;;;;5073403;28;20044;-81
2023/05/25 03:13:21;;;;;;;41.67;23.70;;;10.90;99.90;;;;;;5073198;28;20464;-81
2023/05/25 03:15:46;;;;;;;40.47;22.30;;;10.90;99.90;;;;;;5055292;28;20021;-81
2023/05/25 03:18:12;;;;;;;41.25;24.48;;;10.90;99.90;;;;;;5055088;28;20092;-81
2023/05/25 03:20:38;;;;;;;39.25;25.23;;;10.90;99.90;;;;;;5073268;28;20024;-81
2023/05/25 03:23:03;;;;;;;43.03;25.17;;;10.80;99.90;;;;;;5073154;28;20036;-80
2023/05/25 03:25:29;;;;;;;43.33;22.52;;;10.70;99.90;;;;;;5073225;28;20043;-80
2023/05/25 03:27:55;;;;;;;40.35;23.00;;;10.70;99.90;;;;;;5055067;28;20029;-81
2023/05/25 03:30:23;;;;;;;35.97;22.52;;;10.70;99.90;;;;;;5073128;28;20024;-81
2023/05/25 03:32:49;;;;;;;40.85;22.88;;;10.80;99.90;;;;;;5055133;28;20036;-80
2023/05/25 03:35:15;;;;;;;40.40;23.45;;;10.70;99.90;;;;;;5055188;28;20016;-80
2023/05/25 03:37:40;;;;;;;39.05;22.42;;;10.70;99.90;;;;;;5073250;28;20016;-81
2023/05/25 03:40:08;;;;;;;44.17;24.58;;;10.80;99.90;;;;;;5073095;28;20033;-81
2023/05/25 03:42:34;;;;;;;40.85;23.50;;;10.80;99.90;;;;;;5057629;28;20099;-80
2023/05/25 03:44:59;;;;;;;42.30;22.90;;;10.80;99.90;;;;;;5059077;28;20123;-81
2023/05/25 03:47:25;;;;;;;42.92;24.55;;;10.80;99.90;;;;;;5058962;28;20008;-81
2023/05/25 03:49:50;;;;;;;44.40;23.70;;;10.80;99.90;;;;;;5077017;28;20050;-81
2023/05/25 03:52:16;;;;;;;39.55;22.92;;;10.80;99.90;;;;;;5058793;28;20107;-81
2023/05/25 03:54:42;;;;;;;40.88;23.55;;;10.80;99.90;;;;;;5058944;28;20492;-81
2023/05/25 03:57:07;;;;;;;46.53;24.40;;;10.80;99.90;;;;;;5058944;28;20024;-81
2023/05/25 03:59:33;;;;;;;41.22;22.02;;;10.90;99.90;;;;;;5058849;28;20059;-81
2023/05/25 04:01:58;;;;;;;39.08;22.25;;;10.90;99.90;;;;;;5058775;28;20023;-81
2023/05/25 04:04:24;;;;;;;39.28;21.42;;;10.90;99.90;;;;;;5023055;28;20038;-80
2023/05/25 04:06:50;;;;;;;43.30;22.60;;;10.90;99.90;;;;;;5036614;28;20045;-81
2023/05/25 04:09:16;;;;;;;44.15;25.88;;;10.80;99.90;;;;;;5036573;28;20076;-80
2023/05/25 04:11:43;;;;;;;42.15;23.33;;;10.90;99.90;;;;;;5018583;28;20014;-81
2023/05/25 04:14:08;;;;;;;39.13;23.15;;;10.80;99.90;;;;;;5018735;28;20072;-81
2023/05/25 04:16:34;;;;;;;39.28;23.35;;;10.80;99.90;;;;;;5018718;28;20483;-80
2023/05/25 04:18:59;;;;;;;42.25;23.55;;;10.80;99.90;;;;;;5035705;28;20054;-81
2023/05/25 04:21:25;;;;;;;43.58;24.17;;;10.80;99.90;;;;;;5035106;28;20383;-81
2023/05/25 04:23:51;;;;;;;44.58;25.55;;;10.90;99.90;;;;;;5017288;28;20434;-81
2023/05/25 04:26:17;;;;;;;39.38;23.20;;;10.90;99.90;;;;;;5016868;28;20072;-81
2023/05/25 04:28:42;;;;;;;39.50;23.42;;;10.90;99.90;;;;;;5017297;28;20049;-81
2023/05/25 04:31:08;;;;;;;39.67;23.23;;;11.00;99.90;;;;;;5017271;28;20014;-80
2023/05/25 04:33:37;;;;;;;41.50;22.20;;;11.10;99.90;;;;;;5017103;28;20029;-80
2023/05/25 04:36:03;;;;;;;36.88;20.25;;;11.10;99.90;;;;;;5034941;28;20021;-81
2023/05/25 04:38:29;;;;;;;40.03;22.95;;;11.00;99.90;;;;;;5016991;28;20044;-80
2023/05/25 04:40:56;;;;;;;36.88;22.35;;;11.00;99.90;;;;;;5017076;28;20021;-80
2023/05/25 04:43:24;;;;;;;42.72;23.83;;;11.00;99.90;;;;;;5016845;28;20061;-81
2023/05/25 04:45:51;;;;;;;37.63;23.48;;;11.00;99.90;;;;;;5031669;28;20021;-82
2023/05/25 04:48:17;;;;;;;38.70;21.77;;;11.00;99.90;;;;;;5053666;28;20025;-81
2023/05/25 04:50:42;;;;;;;39.45;21.15;;;11.00;99.90;;;;;;5056238;28;20037;-80
2023/05/25 04:53:08;;;;;;;34.13;21.95;;;11.00;99.90;;;;;;5054159;28;20025;-80
2023/05/25 04:55:33;;;;;;;34.65;20.83;;;11.00;99.90;;;;;;5036477;28;20067;-80
2023/05/25 04:57:59;;;;;;;29.88;18.77;;;11.10;99.90;;;;;;5054680;28;20075;-80
2023/05/25 05:00:25;;;;;;;30.60;19.08;;;11.10;99.90;;;;;;5036565;28;20025;-82
2023/05/25 05:02:51;;;;;;;32.38;20.02;;;11.10;99.90;;;;;;5036413;28;20067;-81
2023/05/25 05:05:17;;;;;;;38.05;20.05;;;11.00;99.90;;;;;;5052931;28;20478;-81
2023/05/25 05:07:43;;;;;;;32.90;20.10;;;11.00;99.90;;;;;;5054236;28;20049;-80
2023/05/25 05:10:09;;;;;;;35.70;20.55;;;11.00;99.90;;;;;;5056375;28;20063;-81
2023/05/25 05:12:34;;;;;;;28.52;18.17;;;11.00;99.90;;;;;;5074182;28;20488;-80
2023/05/25 05:15:00;;;;;;;34.22;18.58;;;11.00;99.90;;;;;;5056119;28;20060;-80
2023/05/25 05:17:26;;;;;;;29.50;19.13;;;11.00;99.90;;;;;;5036982;28;20029;-81
2023/05/25 05:19:52;;;;;;;35.28;19.20;;;11.00;99.90;;;;;;5015147;28;1135450;-81
2023/05/25 05:22:18;;;;;;;29.60;19.02;;;11.10;99.90;;;;;;5053547;28;20033;-81
2023/05/25 05:24:44;;;;;;;31.98;19.10;;;11.20;99.90;;;;;;5040041;28;20040;-81
2023/05/25 05:27:12;;;;;;;29.05;19.13;;;11.10;99.90;;;;;;5036305;28;20488;-80
2023/05/25 05:29:38;;;;;;;28.83;18.25;;;11.10;99.90;;;;;;5038364;28;20021;-81
2023/05/25 05:32:04;;;;;;;26.00;17.20;;;11.20;99.90;;;;;;5036099;28;20048;-80
2023/05/25 05:34:33;;;;;;;28.65;17.40;;;11.20;99.90;;;;;;5035879;28;20532;-81
2023/05/25 05:36:59;;;;;;;28.52;17.90;;;11.30;99.90;;;;;;5055145;28;20489;-81
2023/05/25 05:39:25;;;;;;;26.20;17.17;;;11.30;99.90;;;;;;5039853;28;20025;-81
2023/05/25 05:41:51;;;;;;;25.02;16.63;;;11.30;99.90;;;;;;5053348;28;20024;-81
2023/05/25 05:44:16;;;;;;;26.90;17.75;;;11.40;99.90;;;;;;5041034;28;20036;-81
2023/05/25 05:46:42;;;;;;;29.70;16.33;;;11.50;99.90;;;;;;5056679;28;20017;-81
2023/05/25 05:49:07;;;;;;;27.25;17.27;;;11.50;99.90;;;;;;5068733;28;20060;-81
2023/05/25 05:51:33;;;;;;;28.05;17.13;;;11.50;99.90;;;;;;5038507;28;20453;-81
2023/05/25 05:53:59;;;;;;;26.30;18.05;;;11.40;99.90;;;;;;5040701;28;20078;-81
2023/05/25 05:56:25;;;;;;;28.05;18.10;;;11.50;99.90;;;;;;5074432;28;20050;-81
2023/05/25 05:58:52;;;;;;;24.80;18.05;;;11.50;99.90;;;;;;5074362;28;20103;-81
2023/05/25 06:01:18;;;;;;;24.85;16.23;;;11.40;99.90;;;;;;5056328;28;20070;-81
2023/05/25 06:03:44;;;;;;;26.50;17.65;;;11.40;99.90;;;;;;5058205;28;20434;-80
2023/05/25 06:06:10;;;;;;;29.67;18.63;;;11.30;99.90;;;;;;5035690;28;20017;-80
2023/05/25 06:08:36;;;;;;;26.73;17.40;;;11.30;99.90;;;;;;5037433;28;20024;-80
2023/05/25 06:11:01;;;;;;;34.45;19.02;;;11.30;99.90;;;;;;5036290;28;20394;-80
2023/05/25 06:13:27;;;;;;;28.80;17.35;;;11.30;99.90;;;;;;5036106;28;20096;-79
2023/05/25 06:15:53;;;;;;;30.23;17.50;;;11.30;99.90;;;;;;5035326;28;20061;-81
2023/05/25 06:18:18;;;;;;;30.95;18.58;;;11.30;99.90;;;;;;5032263;28;20055;-81
2023/05/25 06:20:44;;;;;;;28.63;17.52;;;11.30;99.90;;;;;;5046604;28;20096;-80
2023/05/25 06:23:12;;;;;;;32.47;20.08;;;11.40;99.90;;;;;;5034738;28;20037;-80
2023/05/25 06:25:38;;;;;;;31.35;17.98;;;11.40;99.90;;;;;;5051975;28;20028;-80
2023/05/25 06:28:04;;;;;;;33.45;19.77;;;11.50;99.90;;;;;;5053126;28;20486;-80
2023/05/25 06:30:30;;;;;;;27.15;17.65;;;11.50;99.90;;;;;;5035457;28;20478;-80
2023/05/25 06:32:55;;;;;;;30.35;18.88;;;11.40;99.90;;;;;;5035950;28;20045;-80
2023/05/25 06:35:21;;;;;;;30.30;18.17;;;11.50;99.90;;;;;;5068736;28;20086;-80
2023/05/25 06:37:48;;;;;;;27.77;17.60;;;11.50;99.90;;;;;;5055562;28;20028;-81
2023/05/25 06:40:17;;;;;;;30.27;17.75;;;11.60;99.90;;;;;;5055196;28;20025;-80
2023/05/25 06:42:43;;;;;;;29.15;18.25;;;11.70;99.90;;;;;;5035091;28;20120;-81
2023/05/25 06:45:09;;;;;;;29.88;17.45;;;11.70;99.90;;;;;;5035566;28;20109;-79
2023/05/25 06:47:35;;;;;;;28.13;17.98;;;11.70;99.90;;;;;;5035580;28;20020;-80
2023/05/25 06:50:02;;;;;;;27.75;17.98;;;11.70;99.90;;;;;;5047916;28;20024;-80
2023/05/25 06:52:27;;;;;;;31.55;17.98;;;11.70;99.90;;;;;;5055384;28;20028;-80
2023/05/25 06:54:53;;;;;;;28.75;17.77;;;11.70;99.90;;;;;;5043404;28;20032;-80
2023/05/25 06:57:19;;;;;;;27.13;16.33;;;11.80;99.90;;;;;;5030468;28;20041;-80
2023/05/25 06:59:45;;;;;;;27.65;17.85;;;11.90;99.90;;;;;;5030378;28;20029;-80
2023/05/25 07:02:10;;;;;;;29.73;17.83;;;11.90;99.90;;;;;;5033961;28;20489;-79
2023/05/25 07:04:36;;;;;;;26.02;16.50;;;11.90;99.90;;;;;;5038177;28;20397;-80
2023/05/25 07:07:02;;;;;;;24.45;16.85;;;12.00;99.90;;;;;;5036464;28;20550;-80
2023/05/25 07:09:28;;;;;;;26.20;16.90;;;12.00;99.90;;;;;;5044658;28;20067;-80
2023/05/25 07:11:53;;;;;;;30.90;17.05;;;12.00;99.90;;;;;;5015100;28;20024;-80
2023/05/25 07:14:19;;;;;;;25.83;15.75;;;12.00;99.90;;;;;;5033168;28;20056;-80
2023/05/25 07:16:44;;;;;;;29.35;16.25;;;12.00;99.90;;;;;;5015354;28;20556;-80
2023/05/25 07:19:10;;;;;;;27.70;16.58;;;12.00;99.90;;;;;;5038415;28;20053;-80
2023/05/25 07:21:36;;;;;;;28.88;16.05;;;12.00;99.90;;;;;;5052375;28;20040;-80
2023/05/25 07:24:02;;;;;;;24.67;16.17;;;12.10;99.90;;;;;;5052868;28;20116;-80
2023/05/25 07:26:30;;;;;;;25.75;16.92;;;12.10;99.90;;;;;;5031440;28;20463;-79
2023/05/25 07:28:56;;;;;;;23.85;15.50;;;12.10;99.90;;;;;;5034309;28;20078;-80
2023/05/25 07:31:22;;;;;;;25.25;15.90;;;12.30;99.90;;;;;;5018228;28;20044;-80
2023/05/25 07:33:48;;;;;;;26.48;15.30;;;12.30;99.90;;;;;;5035359;28;20032;-80
2023/05/25 07:36:14;;;;;;;23.02;15.95;;;12.30;99.90;;;;;;5037450;28;20359;-80
2023/05/25 07:38:40;;;;;;;21.00;14.90;;;12.40;99.90;;;;;;5052440;28;20085;-80
2023/05/25 07:41:06;;;;;;;22.88;14.65;;;12.30;99.90;;;;;;5053808;28;20017;-79
2023/05/25 07:43:38;;;;;;;22.30;15.35;;;12.30;99.90;;;;;;5052476;28;20048;-80
2023/05/25 07:46:03;;;;;;;27.92;16.33;;;12.30;99.90;;;;;;5034923;28;20028;-80
2023/05/25 07:48:29;;;;;;;20.10;13.68;;;12.30;99.90;;;;;;5052309;28;20519;-81
2023/05/25 07:50:55;;;;;;;22.88;14.50;;;12.30;99.90;;;;;;5034646;28;20025;-81
2023/05/25 07:53:21;;;;;;;22.40;14.88;;;12.30;99.90;;;;;;5029661;28;20522;-80
2023/05/25 07:55:46;;;;;;;27.50;16.42;;;12.40;99.90;;;;;;5032928;28;20025;-80
2023/05/25 07:58:12;;;;;;;22.25;15.18;;;12.40;99.90;;;;;;5052618;28;20079;-80
2023/05/25 08:00:37;;;;;;;21.77;12.98;;;12.50;99.90;;;;;;5034767;28;20021;-80
2023/05/25 08:03:03;;;;;;;23.73;13.90;;;12.60;99.90;;;;;;5034140;28;20087;-80
2023/05/25 08:05:29;;;;;;;20.23;14.15;;;12.70;99.90;;;;;;5034668;28;20363;-80
2023/05/25 08:07:54;;;;;;;21.58;14.00;;;12.80;99.90;;;;;;5034671;28;20021;-80
2023/05/25 08:10:20;;;;;;;23.42;14.80;;;12.80;99.90;;;;;;5052509;28;20025;-80
2023/05/25 08:12:49;;;;;;;22.75;14.98;;;12.70;99.90;;;;;;5034527;28;20032;-80
2023/05/25 08:15:15;;;;;;;23.10;15.10;;;12.70;99.90;;;;;;5034303;28;20024;-80
2023/05/25 08:17:41;;;;;;;23.05;15.02;;;12.80;99.90;;;;;;5052315;28;20025;-80
2023/05/25 08:20:08;;;;;;;21.88;15.23;;;12.80;99.90;;;;;;5053207;28;20056;-79
2023/05/25 08:22:34;;;;;;;21.70;14.90;;;12.90;99.90;;;;;;5052062;28;20021;-79
2023/05/25 08:25:02;;;;;;;18.70;13.55;;;12.70;99.90;;;;;;5034292;28;20044;-80
2023/05/25 08:27:27;;;;;;;23.33;15.90;;;12.80;99.90;;;;;;5054133;28;20456;-80
2023/05/25 08:29:53;;;;;;;21.70;14.90;;;12.80;99.90;;;;;;5038308;28;20029;-79
2023/05/25 08:32:18;;;;;;;22.45;14.82;;;12.60;99.90;;;;;;5051914;28;20060;-78
2023/05/25 08:34:44;;;;;;;21.23;14.38;;;12.70;99.90;;;;;;5045898;28;20474;-78
2023/05/25 08:37:10;;;;;;;17.83;12.95;;;12.70;99.90;;;;;;5036346;28;20036;-78
2023/05/25 08:39:36;;;;;;;25.00;14.35;;;12.90;99.90;;;;;;5036373;28;20025;-79
2023/05/25 08:42:02;;;;;;;21.77;14.15;;;13.00;99.90;;;;;;5053071;28;20048;-80
2023/05/25 08:44:28;;;;;;;26.33;15.50;;;13.00;99.90;;;;;;5053896;28;20036;-78
2023/05/25 08:46:55;;;;;;;26.95;16.30;;;13.00;99.90;;;;;;5054253;28;20040;-79
2023/05/25 08:49:22;;;;;;;21.70;14.98;;;13.00;99.90;;;;;;5036827;28;20029;-79
2023/05/25 08:51:52;;;;;;;23.30;15.75;;;12.90;99.90;;;;;;5054721;28;20033;-79
2023/05/25 08:54:21;;;;;;;22.83;15.20;;;12.90;99.90;;;;;;5054656;28;20033;-79
2023/05/25 08:56:52;;;;;;;24.70;16.08;;;12.80;99.90;;;;;;5054751;28;20086;-80
2023/05/25 08:59:48;;;;;;;25.25;16.77;;;12.80;99.90;;;;;;5035868;28;20112;-79
2023/05/25 09:02:37;;;;;;;23.98;15.82;;;12.80;99.90;;;;;;5036355;28;20061;-78
2023/05/25 09:05:04;;;;;;;28.33;17.25;;;12.80;99.90;;;;;;5036150;28;20091;-78
2023/05/25 09:07:30;;;;;;;25.13;17.65;;;12.70;99.90;;;;;;5036104;28;20029;-78
2023/05/25 09:09:57;;;;;;;28.67;17.88;;;12.80;99.90;;;;;;5057469;28;20016;-79
2023/05/25 09:12:23;;;;;;;25.60;16.98;;;12.60;99.90;;;;;;5056012;28;20130;-78
2023/05/25 09:14:49;;;;;;;27.92;18.80;;;12.60;99.90;;;;;;5052752;28;20111;-79
2023/05/25 09:17:16;;;;;;;56.30;30.27;;;12.60;99.90;;;;;;5053147;28;20185;-78
2023/05/25 09:19:42;;;;;;;40.15;24.27;;;12.70;99.90;;;;;;5072388;28;20052;-78
2023/05/25 09:22:09;;;;;;;46.33;27.33;;;12.80;99.90;;;;;;5051368;28;20033;-78
2023/05/25 09:24:35;;;;;;;52.50;31.27;;;12.90;99.90;;;;;;5054035;28;20375;-78
2023/05/25 09:27:02;;;;;;;35.88;22.27;;;13.00;99.90;;;;;;5053919;28;20037;-79
2023/05/25 09:29:28;;;;;;;30.42;20.20;;;13.00;99.90;;;;;;5060159;28;20025;-79
2023/05/25 09:31:54;;;;;;;29.23;20.20;;;13.10;99.90;;;;;;5054671;28;20112;-80
2023/05/25 09:34:20;;;;;;;31.50;19.60;;;13.10;99.90;;;;;;5056320;28;20017;-80
2023/05/25 09:36:46;;;;;;;30.50;20.00;;;13.10;99.90;;;;;;5072308;28;20037;-79
2023/05/25 09:39:12;;;;;;;30.13;21.40;;;13.00;99.90;;;;;;5053917;28;20054;-79
2023/05/25 09:41:42;;;;;;;32.50;19.10;;;13.10;99.90;;;;;;5056163;28;20026;-78
2023/05/25 09:44:08;;;;;;;37.13;21.42;;;13.10;99.90;;;;;;5074493;28;20036;-78
2023/05/25 09:46:36;;;;;;;33.10;20.95;;;13.20;99.90;;;;;;5054321;28;20031;-78
2023/05/25 09:49:07;;;;;;;34.67;21.25;;;13.20;99.90;;;;;;5059691;28;20021;-79
2023/05/25 09:51:33;;;;;;;31.15;20.02;;;13.30;99.90;;;;;;5033508;28;20032;-79
2023/05/25 09:54:08;;;;;;;38.40;21.73;;;13.30;99.90;;;;;;5033321;28;20048;-79
2023/05/25 09:56:34;;;;;;;33.45;20.98;;;13.20;99.90;;;;;;5033864;28;20035;-79
2023/05/25 09:59:01;;;;;;;37.08;24.92;;;13.10;99.90;;;;;;5051498;28;20017;-79
2023/05/25 10:01:27;;;;;;;38.58;23.05;;;13.10;99.90;;;;;;5051665;28;20079;-78
2023/05/25 10:03:58;;;;;;;50.70;29.52;;;13.10;99.90;;;;;;5052337;28;20490;-79
2023/05/25 10:06:24;;;;;;;41.42;25.98;;;13.20;99.90;;;;;;5053915;28;20053;-79
2023/05/25 10:08:51;;;;;;;47.33;29.52;;;13.40;99.90;;;;;;5052852;28;20390;-79
2023/05/25 10:11:20;;;;;;;31.85;20.80;;;13.40;99.90;;;;;;5053486;28;20102;-78
2023/05/25 10:13:46;;;;;;;40.92;25.48;;;13.40;99.90;;;;;;5052535;28;20025;-79
2023/05/25 10:16:18;;;;;;;28.50;19.23;;;13.50;99.90;;;;;;5053989;28;20501;-79
2023/05/25 10:19:16;;;;;;;30.02;19.63;;;13.40;99.90;;;;;;5061241;28;20036;-79
2023/05/25 10:22:00;;;;;;;33.22;18.73;;;13.40;99.90;;;;;;5056029;28;20060;-79
2023/05/25 10:24:48;;;;;;;32.20;19.73;;;13.50;99.90;;;;;;5055700;28;20094;-79
2023/05/25 10:27:18;;;;;;;24.98;18.08;;;13.60;99.90;;;;;;5073802;28;20020;-80
2023/05/25 10:29:48;;;;;;;30.48;17.63;;;13.60;99.90;;;;;;5055956;28;20102;-79
2023/05/25 10:32:15;;;;;;;28.10;18.88;;;13.60;99.90;;;;;;5073721;28;20021;-80
2023/05/25 10:34:41;;;;;;;30.67;18.55;;;13.60;99.90;;;;;;5055712;28;20061;-78
2023/05/25 10:37:07;;;;;;;28.15;18.17;;;13.60;99.90;;;;;;5054059;28;20024;-79
2023/05/25 10:39:34;;;;;;;27.98;19.30;;;13.60;99.90;;;;;;5040435;28;20028;-79
2023/05/25 10:42:02;;;;;;;36.63;19.75;;;13.70;99.90;;;;;;5054808;28;20485;-79
2023/05/25 10:44:29;;;;;;;28.98;18.63;;;13.60;99.90;;;;;;5071423;28;20241;-79
2023/05/25 10:46:56;;;;;;;26.65;18.40;;;13.60;99.90;;;;;;5071458;28;20085;-79
2023/05/25 10:49:30;;;;;;;26.20;17.70;;;13.50;99.90;;;;;;5072159;28;20059;-80
2023/05/25 10:52:00;;;;;;;27.55;18.05;;;13.50;99.90;;;;;;5054531;28;20024;-80
2023/05/25 10:54:35;;;;;;;28.40;18.35;;;13.50;99.90;;;;;;5054401;28;20020;-78
2023/05/25 10:57:07;;;;;;;27.48;17.48;;;13.50;99.90;;;;;;5055099;28;20055;-80
2023/05/25 10:59:33;;;;;;;;;;;13.70;99.90;;;;;;5048597;28;20557;-80
2023/05/25 11:02:05;;;;;;;28.40;15.55;;;13.80;99.90;;;;;;5035165;28;19955;-80
2023/05/25 11:04:35;;;;;;;28.42;17.65;;;13.70;99.90;;;;;;5035081;28;20037;-80
2023/05/25 11:07:01;;;;;;;27.92;18.95;;;13.60;99.90;;;;;;5055473;28;20025;-80
2023/05/25 11:09:30;;;;;;;24.80;17.52;;;13.60;99.90;;;;;;5053331;28;20079;-79
2023/05/25 11:11:57;;;;;;;24.38;16.20;;;13.80;99.90;;;;;;5071101;28;20048;-80
2023/05/25 11:14:31;;;;;;;27.52;17.30;;;13.80;99.90;;;;;;5051052;28;20031;-80
2023/05/25 11:17:10;;;;;;;28.52;18.50;;;13.80;99.90;;;;;;5036309;28;20025;-81
2023/05/25 11:19:48;;;;;;;25.42;17.00;;;13.80;99.90;;;;;;5036767;28;20053;-80
2023/05/25 11:22:20;;;;;;;28.23;18.80;;;13.70;99.90;;;;;;5033016;28;20061;-81
2023/05/25 11:24:47;;;;;;;26.75;16.98;;;13.80;99.90;;;;;;5015127;28;20029;-80
2023/05/25 11:27:13;;;;;;;28.23;17.38;;;13.70;99.90;;;;;;5032991;28;20029;-81
2023/05/25 11:29:39;;;;;;;25.58;17.35;;;13.60;99.90;;;;;;5022161;28;20155;-80
2023/05/25 11:32:12;;;;;;;26.92;18.02;;;13.60;99.90;;;;;;5054907;28;20537;-80
2023/05/25 11:34:40;;;;;;;26.75;18.92;;;13.70;99.90;;;;;;5054942;28;20025;-79
2023/05/25 11:37:08;;;;;;;26.63;16.80;;;13.70;99.90;;;;;;5072716;28;20359;-80
2023/05/25 11:39:34;;;;;;;26.92;18.75;;;13.70;99.90;;;;;;5054908;28;20020;-79
2023/05/25 11:42:04;;;;;;;23.92;16.92;;;13.70;99.90;;;;;;5072958;28;20046;-80
2023/05/25 11:44:32;;;;;;;26.73;17.42;;;13.80;99.90;;;;;;5054797;28;20553;-80
2023/05/25 11:47:28;;;;;;;25.08;16.83;;;13.90;99.90;;;;;;5054760;28;20423;-80
2023/05/25 11:50:03;;;;;;;27.38;18.50;;;14.00;99.90;;;;;;5073029;28;20035;-80
2023/05/25 11:52:29;;;;;;;25.20;17.73;;;14.10;99.90;;;;;;5066030;28;20094;-77
2023/05/25 11:54:54;;;;;;;24.45;17.52;;;14.20;99.90;;;;;;5072066;28;20029;-78
2023/05/25 11:57:24;;;;;;;26.45;18.23;;;14.30;99.90;;;;;;5054903;28;20023;-78
2023/05/25 11:59:54;;;;;;;26.35;16.60;;;14.20;99.90;;;;;;5054881;28;20502;-78
2023/05/25 12:02:22;;;;;;;45.53;20.70;;;14.20;99.90;;;;;;5054362;28;20044;-79
2023/05/25 12:05:30;;;;;;;58.05;23.67;;;14.20;99.90;;;;;;5052202;28;20029;-79
2023/05/25 12:07:56;;;;;;;21.20;15.18;;;14.50;99.90;;;;;;5088787;23;20056;-79
2023/05/25 12:10:21;;;;;;;26.13;16.92;;;14.60;99.90;;;;;;5097225;28;20467;-78
2023/05/25 12:12:49;;;;;;;21.42;15.13;;;14.70;99.90;;;;;;5109685;28;20063;-78
2023/05/25 12:15:19;;;;;;;24.20;16.33;;;14.80;99.90;;;;;;5098786;28;20596;-78
2023/05/25 12:17:45;;;;;;;27.20;17.83;;;14.80;99.90;;;;;;5087370;28;20047;-78
2023/05/25 12:20:13;;;;;;;25.88;17.13;;;14.80;99.90;;;;;;5088821;28;20016;-78
2023/05/25 12:22:40;;;;;;;26.58;17.30;;;14.80;99.90;;;;;;5088123;28;20012;-78
2023/05/25 12:25:07;;;;;;;23.23;16.38;;;14.90;99.90;;;;;;5110607;28;20039;-78
2023/05/25 12:27:33;;;;;;;22.23;16.30;;;15.00;99.90;;;;;;5116645;28;20073;-78
2023/05/25 12:29:59;;;;;;;21.33;15.07;;;14.90;99.90;;;;;;5098464;28;20470;-78